Time;durP1;ratioP1;P1;durP2;ratioP2;P2;SDS_P1;SDS_P2;PMS_P1;PMS_P2;Temp;Humidity;BMP_temperature;BMP_pressure;BME280_temperature;BME280_humidity;BME280_pressure;Samples;Min_cycle;Max_cycle;Signal;HPM_P1;HPM_P2
2021/07/05 00:02:16;;;;;;;5.97;3.25;;;;;;;;;;5054128;28;20021;-71
2021/07/05 00:04:42;;;;;;;6.22;3.25;;;;;;;;;;5054091;28;20021;-71
2021/07/05 00:07:09;;;;;;;6.32;3.53;;;;;;;;;;5054462;28;20511;-71
2021/07/05 00:09:35;;;;;;;6.28;3.47;;;;;;;;;;5054325;28;20381;-71
2021/07/05 00:12:02;;;;;;;5.20;2.95;;;;;;;;;;5052787;28;20451;-71
2021/07/05 00:14:28;;;;;;;4.97;3.10;;;;;;;;;;5053985;28;20037;-71
2021/07/05 00:16:55;;;;;;;5.45;3.08;;;;;;;;;;5054006;28;20036;-71
2021/07/05 00:19:21;;;;;;;4.78;2.97;;;;;;;;;;5053855;28;20017;-71
2021/07/05 00:21:47;;;;;;;4.40;3.00;;;;;;;;;;5053865;28;20382;-71
2021/07/05 00:24:13;;;;;;;6.25;3.22;;;;;;;;;;5053902;28;20029;-71
2021/07/05 00:26:39;;;;;;;5.35;3.17;;;;;;;;;;5052016;28;20174;-71
2021/07/05 00:29:05;;;;;;;5.45;3.30;;;;;;;;;;5053699;28;20032;-71
2021/07/05 00:31:31;;;;;;;4.45;2.90;;;;;;;;;;5053794;28;20052;-71
2021/07/05 00:33:57;;;;;;;4.38;2.72;;;;;;;;;;5053706;28;20126;-71
2021/07/05 00:36:23;;;;;;;5.18;2.95;;;;;;;;;;5052770;28;20385;-71
2021/07/05 00:38:50;;;;;;;5.50;3.10;;;;;;;;;;5053682;28;20029;-71
2021/07/05 00:41:16;;;;;;;4.97;3.13;;;;;;;;;;5053688;28;20025;-71
2021/07/05 00:43:42;;;;;;;7.40;3.10;;;;;;;;;;5053453;28;20052;-71
2021/07/05 00:46:08;;;;;;;4.38;2.72;;;;;;;;;;5053480;28;20025;-71
2021/07/05 00:48:34;;;;;;;5.30;3.05;;;;;;;;;;5053460;28;20021;-71
2021/07/05 00:51:00;;;;;;;5.47;3.15;;;;;;;;;;5053472;28;20032;-71
2021/07/05 00:53:26;;;;;;;5.05;3.10;;;;;;;;;;5053270;28;20115;-71
2021/07/05 00:55:52;;;;;;;6.57;3.13;;;;;;;;;;5053117;28;20017;-71
2021/07/05 00:58:19;;;;;;;4.75;2.83;;;;;;;;;;5072762;28;20451;-71
2021/07/05 01:00:46;;;;;;;6.88;2.80;;;;;;;;;;5073086;28;20420;-71
2021/07/05 01:03:12;;;;;;;4.68;3.00;;;;;;;;;;5055031;28;20021;-71
2021/07/05 01:05:38;;;;;;;8.07;3.20;;;;;;;;;;5055094;28;20115;-71
2021/07/05 01:08:05;;;;;;;4.80;2.97;;;;;;;;;;5072999;28;20027;-71
2021/07/05 01:10:31;;;;;;;5.22;3.20;;;;;;;;;;5073096;28;20024;-71
2021/07/05 01:12:57;;;;;;;4.82;3.08;;;;;;;;;;5072785;28;20099;-71
2021/07/05 01:15:27;;;;;;;5.40;2.70;;;;;;;;;;5072891;28;20024;-70
2021/07/05 01:17:54;;;;;;;5.28;2.97;;;;;;;;;;5073033;28;20020;-71
2021/07/05 01:20:21;;;;;;;5.07;3.10;;;;;;;;;;5072789;28;20024;-71
2021/07/05 01:22:47;;;;;;;5.30;2.90;;;;;;;;;;5054646;28;20119;-71
2021/07/05 01:25:16;;;;;;;5.38;3.05;;;;;;;;;;5072755;28;20027;-71
2021/07/05 01:27:43;;;;;;;6.05;3.10;;;;;;;;;;5054786;28;20020;-71
2021/07/05 01:30:09;;;;;;;4.70;3.10;;;;;;;;;;5072646;28;20036;-71
2021/07/05 01:32:35;;;;;;;4.88;3.08;;;;;;;;;;5072725;28;20025;-71
2021/07/05 01:35:02;;;;;;;4.60;2.80;;;;;;;;;;5054315;28;20025;-71
2021/07/05 01:37:28;;;;;;;5.03;2.92;;;;;;;;;;5054491;28;20021;-71
2021/07/05 01:39:54;;;;;;;4.10;2.67;;;;;;;;;;5072374;28;20028;-71
2021/07/05 01:42:20;;;;;;;5.00;3.20;;;;;;;;;;5072414;28;20073;-71
2021/07/05 01:44:47;;;;;;;7.10;3.45;;;;;;;;;;5072444;28;20064;-70
2021/07/05 01:47:13;;;;;;;5.15;2.85;;;;;;;;;;5072689;28;20041;-71
2021/07/05 01:49:44;;;;;;;5.28;2.90;;;;;;;;;;5054459;28;20477;-71
2021/07/05 01:52:10;;;;;;;6.60;2.88;;;;;;;;;;5054335;28;20404;-71
2021/07/05 01:54:36;;;;;;;4.85;2.90;;;;;;;;;;5072205;28;20036;-71
2021/07/05 01:57:02;;;;;;;5.32;3.22;;;;;;;;;;5054142;28;20037;-71
2021/07/05 01:59:28;;;;;;;4.97;2.80;;;;;;;;;;5054112;28;20025;-71
2021/07/05 02:01:54;;;;;;;4.53;2.70;;;;;;;;;;5072031;28;20134;-71
2021/07/05 02:04:20;;;;;;;5.45;3.35;;;;;;;;;;5054298;28;20052;-71
2021/07/05 02:06:47;;;;;;;5.78;3.17;;;;;;;;;;5072511;28;20132;-70
2021/07/05 02:09:13;;;;;;;5.80;3.05;;;;;;;;;;5072535;28;20025;-70
2021/07/05 02:11:39;;;;;;;4.43;2.90;;;;;;;;;;5054383;28;20027;-70
2021/07/05 02:14:05;;;;;;;4.82;3.25;;;;;;;;;;5071675;28;20068;-71
2021/07/05 02:16:31;;;;;;;5.15;3.30;;;;;;;;;;5072065;28;20021;-71
2021/07/05 02:18:58;;;;;;;5.40;3.05;;;;;;;;;;5054023;28;20310;-70
2021/07/05 02:21:24;;;;;;;5.95;3.20;;;;;;;;;;5072088;28;20060;-71
2021/07/05 02:23:50;;;;;;;5.15;3.35;;;;;;;;;;5071730;28;20082;-71
2021/07/05 02:26:16;;;;;;;6.00;3.42;;;;;;;;;;5071865;28;20104;-71
2021/07/05 02:28:42;;;;;;;4.45;2.95;;;;;;;;;;5072034;28;20025;-71
2021/07/05 02:31:09;;;;;;;5.07;3.47;;;;;;;;;;5053811;28;20115;-70
2021/07/05 02:33:35;;;;;;;4.60;3.10;;;;;;;;;;5071809;28;20018;-70
2021/07/05 02:36:04;;;;;;;6.38;3.45;;;;;;;;;;5071888;28;20153;-70
2021/07/05 02:38:31;;;;;;;4.85;3.15;;;;;;;;;;5071792;28;20081;-71
2021/07/05 02:40:57;;;;;;;6.35;3.28;;;;;;;;;;5071501;28;20017;-70
2021/07/05 02:43:24;;;;;;;6.30;3.25;;;;;;;;;;5053558;28;20343;-71
2021/07/05 02:45:51;;;;;;;5.22;3.13;;;;;;;;;;5053333;28;20103;-71
2021/07/05 02:48:18;;;;;;;4.75;3.08;;;;;;;;;;5071704;28;20447;-70
2021/07/05 02:50:47;;;;;;;5.72;3.58;;;;;;;;;;5055129;28;20143;-71
2021/07/05 02:53:14;;;;;;;4.97;3.17;;;;;;;;;;5075550;28;20100;-71
2021/07/05 02:55:41;;;;;;;4.95;3.00;;;;;;;;;;5057561;28;20032;-70
2021/07/05 02:58:07;;;;;;;4.30;2.70;;;;;;;;;;5053958;28;20041;-70
2021/07/05 03:00:35;;;;;;;5.10;3.45;;;;;;;;;;5055340;28;20021;-71
2021/07/05 03:03:01;;;;;;;5.15;2.58;;;;;;;;;;5055400;28;20029;-70
2021/07/05 03:05:28;;;;;;;5.40;3.28;;;;;;;;;;5053952;28;20025;-71
2021/07/05 03:07:55;;;;;;;5.40;3.45;;;;;;;;;;5054044;28;20031;-71
2021/07/05 03:10:23;;;;;;;4.95;3.20;;;;;;;;;;5055211;28;20021;-71
2021/07/05 03:12:49;;;;;;;6.47;3.60;;;;;;;;;;5053851;28;20115;-70
2021/07/05 03:15:16;;;;;;;5.40;3.30;;;;;;;;;;5055033;28;20067;-71
2021/07/05 03:17:44;;;;;;;6.80;3.47;;;;;;;;;;5054983;28;20028;-71
2021/07/05 03:20:11;;;;;;;6.68;3.22;;;;;;;;;;5055190;28;20024;-70
2021/07/05 03:22:38;;;;;;;5.40;3.50;;;;;;;;;;5055118;28;20307;-71
2021/07/05 03:25:05;;;;;;;7.85;3.53;;;;;;;;;;5055287;28;20044;-70
2021/07/05 03:27:31;;;;;;;7.75;3.33;;;;;;;;;;5055086;28;20115;-70
2021/07/05 03:29:58;;;;;;;7.00;3.33;;;;;;;;;;5055050;28;20204;-70
2021/07/05 03:32:24;;;;;;;6.47;3.03;;;;;;;;;;5054867;28;20024;-71
2021/07/05 03:34:50;;;;;;;6.45;3.50;;;;;;;;;;5055032;28;20585;-70
2021/07/05 03:37:16;;;;;;;6.60;3.10;;;;;;;;;;5053488;28;20021;-71
2021/07/05 03:39:42;;;;;;;5.38;3.22;;;;;;;;;;5054596;28;20029;-71
2021/07/05 03:42:08;;;;;;;5.03;3.30;;;;;;;;;;5053398;28;20013;-71
2021/07/05 03:44:34;;;;;;;6.82;3.47;;;;;;;;;;5053265;28;20025;-70
2021/07/05 03:47:00;;;;;;;5.05;3.22;;;;;;;;;;5054487;28;20086;-71
2021/07/05 03:49:26;;;;;;;5.43;3.33;;;;;;;;;;5053332;28;20029;-71
2021/07/05 03:51:52;;;;;;;5.03;3.30;;;;;;;;;;5054531;28;20009;-71
2021/07/05 03:54:18;;;;;;;6.47;3.53;;;;;;;;;;5054249;28;20036;-71
2021/07/05 03:56:45;;;;;;;5.68;3.35;;;;;;;;;;5060888;28;20032;-70
2021/07/05 03:59:11;;;;;;;5.00;2.97;;;;;;;;;;5073963;28;20093;-70
2021/07/05 04:01:37;;;;;;;6.88;3.42;;;;;;;;;;5073385;28;20480;-71
2021/07/05 04:04:03;;;;;;;5.30;3.13;;;;;;;;;;5073987;28;20377;-70
2021/07/05 04:06:29;;;;;;;5.18;3.33;;;;;;;;;;5074369;28;20081;-70
2021/07/05 04:08:58;;;;;;;5.15;3.30;;;;;;;;;;5074449;28;20096;-70
2021/07/05 04:11:24;;;;;;;5.20;3.08;;;;;;;;;;5056453;28;20024;-70
2021/07/05 04:13:50;;;;;;;7.70;3.70;;;;;;;;;;5056073;28;20032;-70
2021/07/05 04:16:16;;;;;;;8.65;3.70;;;;;;;;;;5074157;28;20021;-70
2021/07/05 04:18:42;;;;;;;5.18;3.45;;;;;;;;;;5073944;28;20478;-70
2021/07/05 04:21:08;;;;;;;4.95;3.05;;;;;;;;;;5074074;28;20021;-70
2021/07/05 04:23:34;;;;;;;5.78;3.38;;;;;;;;;;5074227;28;20179;-70
2021/07/05 04:26:02;;;;;;;6.22;3.75;;;;;;;;;;5055959;28;20480;-70
2021/07/05 04:28:28;;;;;;;6.78;3.45;;;;;;;;;;5073929;28;20020;-70
2021/07/05 04:30:54;;;;;;;5.57;3.85;;;;;;;;;;5073838;28;20106;-70
2021/07/05 04:33:21;;;;;;;5.00;3.47;;;;;;;;;;5055790;28;20040;-70
2021/07/05 04:35:47;;;;;;;5.78;3.08;;;;;;;;;;5073707;28;20658;-70
2021/07/05 04:38:13;;;;;;;6.03;3.55;;;;;;;;;;5055693;28;20366;-70
2021/07/05 04:40:40;;;;;;;6.53;3.30;;;;;;;;;;5055576;28;20069;-70
2021/07/05 04:43:06;;;;;;;6.05;3.25;;;;;;;;;;5073504;28;20021;-70
2021/07/05 04:45:33;;;;;;;6.13;4.05;;;;;;;;;;5055603;28;20119;-71
2021/07/05 04:48:01;;;;;;;6.30;3.80;;;;;;;;;;5055434;28;20071;-70
2021/07/05 04:50:29;;;;;;;5.57;3.55;;;;;;;;;;5073156;28;20028;-70
2021/07/05 04:52:55;;;;;;;6.28;3.85;;;;;;;;;;5073313;28;20095;-71
2021/07/05 04:55:21;;;;;;;5.95;3.58;;;;;;;;;;5073268;28;20036;-70
2021/07/05 04:57:48;;;;;;;4.78;3.15;;;;;;;;;;5055132;28;20044;-70
2021/07/05 05:00:18;;;;;;;5.10;3.50;;;;;;;;;;5073218;28;20405;-70
2021/07/05 05:02:44;;;;;;;5.63;3.55;;;;;;;;;;5073264;28;20497;-70
2021/07/05 05:05:10;;;;;;;6.28;3.55;;;;;;;;;;5072836;28;20028;-71
2021/07/05 05:07:36;;;;;;;5.90;3.53;;;;;;;;;;5073073;28;20102;-71
2021/07/05 05:10:06;;;;;;;5.07;3.38;;;;;;;;;;5072876;28;20388;-71
2021/07/05 05:12:33;;;;;;;6.97;3.90;;;;;;;;;;5054819;28;20087;-71
2021/07/05 05:14:59;;;;;;;6.43;4.00;;;;;;;;;;5054393;28;20041;-70
2021/07/05 05:17:26;;;;;;;5.18;3.22;;;;;;;;;;5072735;28;20046;-71
2021/07/05 05:19:52;;;;;;;6.38;3.30;;;;;;;;;;5072417;28;20362;-71
2021/07/05 05:22:18;;;;;;;7.13;3.70;;;;;;;;;;5072354;28;20020;-70
2021/07/05 05:24:44;;;;;;;5.15;3.13;;;;;;;;;;5072426;28;20029;-70
2021/07/05 05:27:10;;;;;;;5.88;3.67;;;;;;;;;;5072439;28;20052;-70
2021/07/05 05:29:38;;;;;;;6.30;3.78;;;;;;;;;;5073006;28;20017;-70
2021/07/05 05:32:04;;;;;;;6.05;3.65;;;;;;;;;;5072408;28;20020;-71
2021/07/05 05:34:30;;;;;;;6.55;3.83;;;;;;;;;;5072296;28;20039;-70
2021/07/05 05:36:56;;;;;;;5.40;3.30;;;;;;;;;;5072370;28;20100;-70
2021/07/05 05:39:22;;;;;;;5.20;3.35;;;;;;;;;;5054531;28;20362;-71
2021/07/05 05:41:48;;;;;;;6.03;4.00;;;;;;;;;;5072369;28;20020;-71
2021/07/05 05:44:14;;;;;;;5.15;3.60;;;;;;;;;;5054045;28;20031;-71
2021/07/05 05:46:40;;;;;;;6.32;3.78;;;;;;;;;;5072167;28;20534;-71
2021/07/05 05:49:07;;;;;;;6.30;3.42;;;;;;;;;;5072267;28;20032;-71
2021/07/05 05:51:35;;;;;;;6.10;3.92;;;;;;;;;;5071997;28;20058;-71
2021/07/05 05:54:02;;;;;;;6.35;3.45;;;;;;;;;;5053794;28;20021;-71
2021/07/05 05:56:31;;;;;;;6.75;3.95;;;;;;;;;;5071951;28;20083;-71
2021/07/05 05:59:00;;;;;;;5.40;3.88;;;;;;;;;;5072211;28;20066;-71
2021/07/05 06:01:28;;;;;;;6.07;3.70;;;;;;;;;;5072116;28;20367;-70
2021/07/05 06:03:55;;;;;;;6.07;3.90;;;;;;;;;;5054140;28;20499;-71
2021/07/05 06:06:21;;;;;;;6.13;3.65;;;;;;;;;;5072047;28;20389;-70
2021/07/05 06:08:47;;;;;;;6.53;3.05;;;;;;;;;;5071989;28;20021;-71
2021/07/05 06:11:13;;;;;;;5.18;3.47;;;;;;;;;;5072029;28;20020;-71
2021/07/05 06:13:40;;;;;;;6.38;3.53;;;;;;;;;;5071682;28;20119;-70
2021/07/05 06:16:06;;;;;;;7.88;3.70;;;;;;;;;;5071974;28;20021;-70
2021/07/05 06:18:33;;;;;;;6.13;4.03;;;;;;;;;;5072124;28;20021;-70
2021/07/05 06:20:59;;;;;;;5.68;3.40;;;;;;;;;;5072284;28;20017;-71
2021/07/05 06:23:26;;;;;;;5.85;3.88;;;;;;;;;;5071862;28;20089;-70
2021/07/05 06:25:52;;;;;;;7.90;3.92;;;;;;;;;;5073543;28;20309;-70
2021/07/05 06:28:19;;;;;;;7.03;3.88;;;;;;;;;;5076045;28;20017;-71
2021/07/05 06:30:46;;;;;;;5.68;3.63;;;;;;;;;;5075867;28;20021;-71
2021/07/05 06:33:13;;;;;;;5.90;3.53;;;;;;;;;;5075750;28;20029;-71
2021/07/05 06:35:39;;;;;;;6.50;4.13;;;;;;;;;;5076105;28;20108;-71
2021/07/05 06:38:05;;;;;;;5.00;3.35;;;;;;;;;;5075886;28;20032;-71
2021/07/05 06:40:31;;;;;;;5.75;3.60;;;;;;;;;;5057597;28;20027;-71
2021/07/05 06:42:58;;;;;;;6.60;3.90;;;;;;;;;;5057775;28;20024;-71
2021/07/05 06:45:24;;;;;;;7.05;4.05;;;;;;;;;;5075476;28;20505;-71
2021/07/05 06:47:50;;;;;;;5.40;3.40;;;;;;;;;;5075690;28;20021;-70
2021/07/05 06:50:16;;;;;;;5.10;3.42;;;;;;;;;;5075814;28;20044;-70
2021/07/05 06:52:42;;;;;;;5.70;3.50;;;;;;;;;;5075535;28;20024;-70
2021/07/05 06:55:08;;;;;;;6.18;3.58;;;;;;;;;;5075527;28;20485;-71
2021/07/05 06:57:35;;;;;;;6.30;3.50;;;;;;;;;;5075545;28;20485;-71
2021/07/05 07:00:06;;;;;;;7.18;3.65;;;;;;;;;;5075334;28;20028;-71
2021/07/05 07:02:33;;;;;;;6.40;3.40;;;;;;;;;;5075423;28;20021;-71
2021/07/05 07:04:59;;;;;;;5.38;3.55;;;;;;;;;;5075218;28;20024;-71
2021/07/05 07:07:25;;;;;;;6.72;3.90;;;;;;;;;;5075171;28;20047;-71
2021/07/05 07:09:51;;;;;;;6.55;3.90;;;;;;;;;;5075169;28;20524;-71
2021/07/05 07:12:17;;;;;;;6.68;3.65;;;;;;;;;;5075105;28;20106;-71
2021/07/05 07:14:43;;;;;;;7.05;3.92;;;;;;;;;;5074941;28;20033;-71
2021/07/05 07:17:17;;;;;;;6.60;3.97;;;;;;;;;;5056931;28;20017;-71
2021/07/05 07:19:43;;;;;;;7.32;3.65;;;;;;;;;;5074683;28;20461;-71
2021/07/05 07:22:09;;;;;;;5.72;3.67;;;;;;;;;;5074631;28;20020;-71
2021/07/05 07:24:35;;;;;;;7.57;3.58;;;;;;;;;;5074605;28;20024;-71
2021/07/05 07:27:01;;;;;;;9.15;3.60;;;;;;;;;;5074692;28;20096;-71
2021/07/05 07:29:28;;;;;;;6.65;3.97;;;;;;;;;;5074970;28;20062;-71
2021/07/05 07:31:54;;;;;;;5.47;3.70;;;;;;;;;;5075135;28;20184;-71
2021/07/05 07:34:20;;;;;;;6.80;4.07;;;;;;;;;;5074684;28;20112;-71
2021/07/05 07:36:47;;;;;;;6.32;3.88;;;;;;;;;;5074332;28;20024;-71
2021/07/05 07:39:17;;;;;;;6.15;3.65;;;;;;;;;;5074929;28;20120;-71
2021/07/05 07:41:44;;;;;;;6.60;3.72;;;;;;;;;;5074516;28;20012;-71
2021/07/05 07:44:10;;;;;;;6.38;3.70;;;;;;;;;;5056575;28;20025;-71
2021/07/05 07:46:36;;;;;;;4.78;3.13;;;;;;;;;;5056494;28;20112;-71
2021/07/05 07:49:02;;;;;;;5.47;3.25;;;;;;;;;;5074694;28;20032;-71
2021/07/05 07:51:28;;;;;;;5.88;3.90;;;;;;;;;;5056763;28;20480;-71
2021/07/05 07:53:56;;;;;;;5.78;3.53;;;;;;;;;;5074462;28;20033;-71
2021/07/05 07:56:22;;;;;;;5.45;3.60;;;;;;;;;;5074741;28;20101;-71
2021/07/05 07:58:48;;;;;;;8.23;3.60;;;;;;;;;;5074289;28;20028;-71
2021/07/05 08:01:14;;;;;;;5.43;3.15;;;;;;;;;;5074360;28;20035;-71
2021/07/05 08:03:40;;;;;;;4.78;3.15;;;;;;;;;;5056294;28;20021;-71
2021/07/05 08:06:06;;;;;;;5.55;3.65;;;;;;;;;;5056169;28;20059;-71
2021/07/05 08:08:33;;;;;;;5.93;3.65;;;;;;;;;;5074339;28;20065;-71
2021/07/05 08:10:59;;;;;;;6.25;3.70;;;;;;;;;;5074352;28;20103;-71
2021/07/05 08:13:25;;;;;;;5.53;3.47;;;;;;;;;;5074433;28;20039;-71
2021/07/05 08:15:52;;;;;;;4.93;3.20;;;;;;;;;;5056570;28;20396;-71
2021/07/05 08:18:19;;;;;;;6.10;3.50;;;;;;;;;;5074114;28;20094;-71
2021/07/05 08:20:45;;;;;;;6.30;3.30;;;;;;;;;;5074152;28;20025;-71
2021/07/05 08:23:11;;;;;;;6.60;3.80;;;;;;;;;;5073957;28;20104;-71
2021/07/05 08:25:38;;;;;;;5.97;3.42;;;;;;;;;;5073945;28;20029;-71
2021/07/05 08:28:04;;;;;;;6.18;3.65;;;;;;;;;;5073838;28;20023;-71
2021/07/05 08:30:30;;;;;;;6.25;3.28;;;;;;;;;;5073853;28;20492;-71
2021/07/05 08:32:57;;;;;;;6.60;3.67;;;;;;;;;;5073696;28;20473;-71
2021/07/05 08:35:24;;;;;;;5.40;3.10;;;;;;;;;;5073587;28;20039;-71
2021/07/05 08:37:55;;;;;;;5.80;3.15;;;;;;;;;;5073652;28;20021;-71
2021/07/05 08:40:22;;;;;;;5.90;3.17;;;;;;;;;;5073586;28;20384;-71
2021/07/05 08:42:48;;;;;;;7.30;3.90;;;;;;;;;;5073438;28;20039;-71
2021/07/05 08:45:15;;;;;;;6.57;3.42;;;;;;;;;;5073521;28;20024;-71
2021/07/05 08:47:42;;;;;;;5.72;3.45;;;;;;;;;;5055107;28;20485;-71
2021/07/05 08:50:09;;;;;;;7.38;3.28;;;;;;;;;;5073310;28;20024;-71
2021/07/05 08:52:41;;;;;;;7.47;3.53;;;;;;;;;;5073207;28;20536;-71
2021/07/05 08:55:07;;;;;;;;;;;;;;;;;;5055676;28;20067;-71
2021/07/05 08:57:41;;;;;;;5.97;3.40;;;;;;;;;;5073183;28;19959;-71
2021/07/05 09:00:12;;;;;;;5.63;3.47;;;;;;;;;;5073272;28;20078;-71
2021/07/05 09:02:38;;;;;;;6.63;3.20;;;;;;;;;;5073521;28;20527;-71
2021/07/05 09:05:05;;;;;;;5.30;3.55;;;;;;;;;;5054958;28;20024;-71
2021/07/05 09:07:31;;;;;;;6.78;3.05;;;;;;;;;;5055064;28;20020;-71
2021/07/05 09:10:15;;;;;;;4.88;3.00;;;;;;;;;;5072999;28;20028;-71
2021/07/05 09:12:42;;;;;;;7.20;3.22;;;;;;;;;;5073197;28;20312;-71
2021/07/05 09:15:10;;;;;;;8.43;3.78;;;;;;;;;;5054952;28;20096;-71
2021/07/05 09:17:37;;;;;;;5.65;3.15;;;;;;;;;;5072791;28;20025;-71
2021/07/05 09:20:18;;;;;;;6.32;3.80;;;;;;;;;;5072782;28;20382;-71
2021/07/05 09:23:03;;;;;;;6.70;3.90;;;;;;;;;;5054773;28;20020;-71
2021/07/05 09:25:33;;;;;;;6.45;3.70;;;;;;;;;;5072787;28;20496;-70
2021/07/05 09:27:59;;;;;;;6.60;3.42;;;;;;;;;;5054686;28;20024;-71
2021/07/05 09:30:34;;;;;;;6.35;3.88;;;;;;;;;;5072584;28;20013;-71
2021/07/05 09:33:19;;;;;;;6.07;3.72;;;;;;;;;;5072473;28;20020;-71
2021/07/05 09:35:45;;;;;;;8.43;3.95;;;;;;;;;;5072620;28;20047;-71
2021/07/05 09:38:11;;;;;;;5.40;3.22;;;;;;;;;;5072524;28;20554;-71
2021/07/05 09:40:37;;;;;;;6.70;3.60;;;;;;;;;;5072507;28;20066;-71
2021/07/05 09:43:20;;;;;;;7.47;3.60;;;;;;;;;;5072308;28;20481;-71
2021/07/05 09:45:46;;;;;;;6.78;3.80;;;;;;;;;;5072342;28;20021;-71
2021/07/05 09:48:12;;;;;;;5.65;3.60;;;;;;;;;;5054217;28;20044;-71
2021/07/05 09:50:38;;;;;;;7.50;3.85;;;;;;;;;;5072252;28;20035;-71
2021/07/05 09:53:27;;;;;;;5.97;3.60;;;;;;;;;;5072068;28;20070;-71
2021/07/05 09:55:53;;;;;;;6.43;3.72;;;;;;;;;;5061478;28;20045;-71
2021/07/05 09:58:32;;;;;;;4.35;3.00;;;;;;;;;;5053940;28;20452;-71
2021/07/05 10:00:58;;;;;;;6.50;3.47;;;;;;;;;;5072009;28;20028;-71
2021/07/05 10:03:35;;;;;;;6.40;3.60;;;;;;;;;;5072167;28;20257;-70
2021/07/05 10:06:17;;;;;;;5.75;3.47;;;;;;;;;;5072160;28;20095;-71
2021/07/05 10:08:43;;;;;;;8.88;3.83;;;;;;;;;;5072019;28;20035;-71
2021/07/05 10:11:10;;;;;;;5.22;3.22;;;;;;;;;;5072212;28;20024;-71
2021/07/05 10:13:36;;;;;;;6.40;3.17;;;;;;;;;;5072192;28;20513;-71
2021/07/05 10:16:05;;;;;;;6.55;3.80;;;;;;;;;;5071956;28;20485;-71
2021/07/05 10:18:31;;;;;;;6.43;3.70;;;;;;;;;;5072200;28;20017;-71
2021/07/05 10:20:58;;;;;;;6.65;3.55;;;;;;;;;;5071969;28;20246;-71
2021/07/05 10:23:25;;;;;;;5.95;3.55;;;;;;;;;;5071713;28;20465;-71
2021/07/05 10:25:51;;;;;;;5.47;3.38;;;;;;;;;;5072036;28;20037;-71
2021/07/05 10:28:18;;;;;;;5.05;3.30;;;;;;;;;;5053680;28;20009;-71
2021/07/05 10:30:45;;;;;;;5.90;3.25;;;;;;;;;;5053985;28;20120;-71
2021/07/05 10:33:12;;;;;;;5.93;3.30;;;;;;;;;;5071644;28;20028;-71
2021/07/05 10:35:49;;;;;;;4.93;3.10;;;;;;;;;;5071936;28;20534;-71
2021/07/05 10:38:21;;;;;;;5.05;3.10;;;;;;;;;;5053646;28;20532;-71
2021/07/05 10:40:51;;;;;;;5.82;3.25;;;;;;;;;;5071711;28;20029;-71
2021/07/05 10:43:18;;;;;;;4.25;2.75;;;;;;;;;;5071602;28;20056;-71
2021/07/05 10:45:46;;;;;;;5.32;3.60;;;;;;;;;;5071529;28;20028;-71
2021/07/05 10:48:13;;;;;;;5.68;3.15;;;;;;;;;;5071471;28;20020;-71
2021/07/05 10:50:44;;;;;;;5.43;3.22;;;;;;;;;;5071734;28;20032;-71
2021/07/05 10:53:11;;;;;;;4.60;3.15;;;;;;;;;;5071514;28;20017;-71
2021/07/05 10:55:37;;;;;;;5.45;3.10;;;;;;;;;;5071491;28;20071;-71
2021/07/05 10:58:14;;;;;;;5.20;3.30;;;;;;;;;;5071428;28;20044;-71
2021/07/05 11:00:41;;;;;;;5.72;3.58;;;;;;;;;;5071621;28;20039;-71
2021/07/05 11:03:07;;;;;;;7.10;3.38;;;;;;;;;;5071376;28;20448;-71
2021/07/05 11:05:33;;;;;;;7.90;3.50;;;;;;;;;;5071600;28;20021;-71
2021/07/05 11:08:18;;;;;;;5.70;3.58;;;;;;;;;;5071492;28;20031;-71
2021/07/05 11:10:45;;;;;;;5.93;2.80;;;;;;;;;;5071449;28;20027;-71
2021/07/05 11:13:11;;;;;;;5.80;2.95;;;;;;;;;;5074723;28;20025;-71
2021/07/05 11:15:52;;;;;;;4.75;2.97;;;;;;;;;;5075000;28;20039;-71
2021/07/05 11:18:37;;;;;;;5.50;2.90;;;;;;;;;;5056900;28;20027;-71
2021/07/05 11:21:10;;;;;;;5.88;3.38;;;;;;;;;;5075237;28;20376;-71
2021/07/05 11:24:07;;;;;;;7.25;3.20;;;;;;;;;;5056931;28;20021;-71
2021/07/05 11:26:36;;;;;;;5.72;3.30;;;;;;;;;;5035810;28;20231;-71
2021/07/05 11:29:14;;;;;;;5.80;3.08;;;;;;;;;;5075124;28;20025;-71
2021/07/05 11:31:55;;;;;;;4.97;2.83;;;;;;;;;;5074726;28;20031;-71
2021/07/05 11:34:40;;;;;;;5.32;2.70;;;;;;;;;;5074387;28;20035;-71
2021/07/05 11:37:18;;;;;;;4.85;2.92;;;;;;;;;;5074724;28;20021;-71
2021/07/05 11:39:48;;;;;;;5.78;2.90;;;;;;;;;;5074448;28;20025;-71
2021/07/05 11:42:20;;;;;;;4.28;2.33;;;;;;;;;;5056609;28;20032;-71
2021/07/05 11:44:50;;;;;;;4.88;2.85;;;;;;;;;;5056590;28;20067;-71
2021/07/05 11:47:35;;;;;;;4.47;2.63;;;;;;;;;;5056388;28;20031;-71
2021/07/05 11:50:22;;;;;;;4.60;3.08;;;;;;;;;;5077794;28;20025;-71
2021/07/05 11:52:49;;;;;;;4.90;2.80;;;;;;;;;;5074264;28;20039;-71
2021/07/05 11:55:16;;;;;;;4.93;2.58;;;;;;;;;;5074548;28;20045;-71
2021/07/05 11:57:45;;;;;;;3.65;1.92;;;;;;;;;;5074170;28;20040;-71
2021/07/05 12:00:12;;;;;;;3.88;2.50;;;;;;;;;;5074396;28;20020;-71
2021/07/05 12:02:38;;;;;;;5.05;2.60;;;;;;;;;;5074238;28;20025;-71
2021/07/05 12:05:08;;;;;;;5.85;2.63;;;;;;;;;;5073957;28;20024;-71
2021/07/05 12:07:34;;;;;;;4.22;2.40;;;;;;;;;;5074352;28;20380;-71
2021/07/05 12:10:00;;;;;;;4.25;2.53;;;;;;;;;;5056211;28;20052;-71
2021/07/05 12:12:30;;;;;;;4.57;2.60;;;;;;;;;;5074249;28;20016;-71
2021/07/05 12:14:56;;;;;;;5.50;2.90;;;;;;;;;;5074148;28;20459;-71
2021/07/05 12:17:23;;;;;;;5.10;2.42;;;;;;;;;;5074075;28;20458;-71
2021/07/05 12:19:52;;;;;;;4.10;2.00;;;;;;;;;;5074185;28;20025;-71
2021/07/05 12:22:19;;;;;;;4.57;2.63;;;;;;;;;;5055425;28;20025;-71
2021/07/05 12:24:46;;;;;;;3.60;2.30;;;;;;;;;;5055007;28;20020;-71
2021/07/05 12:27:14;;;;;;;3.85;2.35;;;;;;;;;;5073469;28;20017;-71
2021/07/05 12:29:48;;;;;;;5.10;2.70;;;;;;;;;;5074040;28;20047;-71
2021/07/05 12:32:16;;;;;;;4.20;2.53;;;;;;;;;;5073812;28;20017;-71
2021/07/05 12:35:02;;;;;;;4.65;2.38;;;;;;;;;;5055972;28;20028;-71
2021/07/05 12:37:31;;;;;;;5.00;2.50;;;;;;;;;;5059781;28;20037;-71
2021/07/05 12:40:15;;;;;;;3.92;2.20;;;;;;;;;;5073870;28;20021;-71
2021/07/05 12:42:42;;;;;;;4.30;2.38;;;;;;;;;;5055480;28;20047;-71
2021/07/05 12:45:26;;;;;;;4.47;2.60;;;;;;;;;;5055668;28;20385;-71
2021/07/05 12:47:55;;;;;;;4.65;2.65;;;;;;;;;;5073974;28;20509;-71
2021/07/05 12:50:27;;;;;;;3.85;2.40;;;;;;;;;;5073729;28;20024;-71
2021/07/05 12:53:19;;;;;;;3.55;2.10;;;;;;;;;;5073363;28;20039;-71
2021/07/05 12:55:53;;;;;;;4.57;2.53;;;;;;;;;;5042582;28;20036;-71
2021/07/05 12:58:36;;;;;;;4.72;2.58;;;;;;;;;;5073037;28;20106;-71
2021/07/05 13:01:08;;;;;;;3.83;2.05;;;;;;;;;;5073303;28;20047;-70
2021/07/05 13:03:35;;;;;;;3.42;2.00;;;;;;;;;;5072929;28;20066;-71
2021/07/05 13:06:05;;;;;;;3.58;2.13;;;;;;;;;;5073153;28;20024;-71
2021/07/05 13:08:31;;;;;;;5.15;2.50;;;;;;;;;;5072818;28;20515;-71
2021/07/05 13:11:06;;;;;;;5.70;2.45;;;;;;;;;;5072792;28;20017;-71
2021/07/05 13:13:37;;;;;;;4.38;2.35;;;;;;;;;;5072740;28;20028;-71
2021/07/05 13:16:14;;;;;;;5.55;2.33;;;;;;;;;;5055132;28;20036;-71
2021/07/05 13:18:40;;;;;;;4.50;2.30;;;;;;;;;;5072880;28;20028;-71
2021/07/05 13:21:06;;;;;;;4.03;2.60;;;;;;;;;;5072798;28;20025;-71
2021/07/05 13:23:40;;;;;;;4.63;2.70;;;;;;;;;;5072733;28;20021;-71
2021/07/05 13:26:07;;;;;;;4.57;2.33;;;;;;;;;;5072646;28;20103;-71
2021/07/05 13:28:42;;;;;;;4.20;2.40;;;;;;;;;;5072415;28;20508;-71
2021/07/05 14:01:46;;;;;;;4.55;2.67;;;;;;;;;;5072595;28;20063;-71
2021/07/05 14:04:12;;;;;;;5.15;3.15;;;;;;;;;;5072878;28;20028;-71
2021/07/05 14:06:38;;;;;;;3.95;2.47;;;;;;;;;;5055034;28;20016;-71
2021/07/05 14:09:05;;;;;;;4.53;3.00;;;;;;;;;;5072786;28;20055;-71
2021/07/05 14:11:31;;;;;;;5.47;2.50;;;;;;;;;;5072947;28;20048;-71
2021/07/05 14:13:57;;;;;;;4.68;2.53;;;;;;;;;;5054757;28;20032;-71
2021/07/05 14:16:23;;;;;;;4.43;2.78;;;;;;;;;;5053996;28;20111;-71
2021/07/05 14:18:49;;;;;;;4.13;2.67;;;;;;;;;;5053996;28;20173;-71
2021/07/05 14:21:17;;;;;;;4.90;2.78;;;;;;;;;;5071925;28;20028;-71
2021/07/05 14:23:44;;;;;;;4.65;2.58;;;;;;;;;;5071727;28;20079;-71
2021/07/05 14:26:10;;;;;;;4.55;2.33;;;;;;;;;;5071866;28;20017;-71
2021/07/05 14:28:37;;;;;;;4.50;2.72;;;;;;;;;;5071601;28;20095;-71
2021/07/05 14:31:03;;;;;;;4.97;2.80;;;;;;;;;;5054514;28;20024;-71
2021/07/05 14:33:29;;;;;;;3.70;2.20;;;;;;;;;;5072163;28;20013;-71
2021/07/05 14:35:58;;;;;;;5.60;3.08;;;;;;;;;;5053798;28;20564;-71
2021/07/05 14:38:25;;;;;;;6.15;3.05;;;;;;;;;;5071671;28;20441;-71
2021/07/05 14:40:51;;;;;;;4.07;2.47;;;;;;;;;;5053720;28;20435;-71
2021/07/05 14:43:17;;;;;;;5.38;2.85;;;;;;;;;;5053804;28;20328;-71
2021/07/05 14:45:43;;;;;;;4.68;2.50;;;;;;;;;;5054090;28;20024;-71
2021/07/05 14:48:09;;;;;;;4.00;2.42;;;;;;;;;;5075535;28;20032;-71
2021/07/05 14:50:36;;;;;;;3.85;2.30;;;;;;;;;;5057872;28;20535;-71
2021/07/05 14:53:03;;;;;;;4.38;2.72;;;;;;;;;;5075605;28;20052;-71
2021/07/05 14:55:30;;;;;;;4.95;2.78;;;;;;;;;;5075371;28;20028;-71
2021/07/05 14:57:57;;;;;;;5.20;2.90;;;;;;;;;;5075553;28;20103;-71
2021/07/05 15:00:30;;;;;;;3.92;2.50;;;;;;;;;;5075301;28;20049;-71
2021/07/05 15:02:59;;;;;;;4.82;2.55;;;;;;;;;;5075325;28;20492;-71
2021/07/05 15:05:25;;;;;;;4.22;2.50;;;;;;;;;;5075621;28;20020;-71
2021/07/05 15:07:52;;;;;;;5.60;2.53;;;;;;;;;;5075391;28;20033;-71
2021/07/05 15:10:19;;;;;;;4.93;3.00;;;;;;;;;;5057277;28;20496;-71
2021/07/05 15:12:46;;;;;;;3.47;2.15;;;;;;;;;;5075035;28;20397;-72
2021/07/05 15:15:12;;;;;;;5.47;2.55;;;;;;;;;;5057266;28;20543;-71
2021/07/05 15:17:38;;;;;;;3.92;2.38;;;;;;;;;;5075092;28;20053;-71
2021/07/05 15:20:06;;;;;;;3.55;1.98;;;;;;;;;;5057006;28;20027;-71